sensor_id;sensor_type;location;lat;lon;timestamp;P1;durP1;ratioP1;P2;durP2;ratioP2
13279;SDS011;6708;49.814;8.652;2023-05-06T00:01:09;2.37;;;2.20;;
13279;SDS011;6708;49.814;8.652;2023-05-06T00:03:39;1.53;;;1.50;;
13279;SDS011;6708;49.814;8.652;2023-05-06T00:06:08;1.37;;;1.27;;
13279;SDS011;6708;49.814;8.652;2023-05-06T00:08:39;1.40;;;1.30;;
13279;SDS011;6708;49.814;8.652;2023-05-06T00:11:07;1.60;;;1.50;;
13279;SDS011;6708;49.814;8.652;2023-05-06T00:13:36;1.40;;;1.40;;
13279;SDS011;6708;49.814;8.652;2023-05-06T00:16:05;1.63;;;1.53;;
13279;SDS011;6708;49.814;8.652;2023-05-06T00:18:33;2.00;;;1.90;;
13279;SDS011;6708;49.814;8.652;2023-05-06T00:21:02;1.50;;;1.40;;
13279;SDS011;6708;49.814;8.652;2023-05-06T00:23:30;1.17;;;1.07;;
13279;SDS011;6708;49.814;8.652;2023-05-06T00:26:01;1.63;;;1.53;;
13279;SDS011;6708;49.814;8.652;2023-05-06T00:28:30;1.87;;;1.77;;
13279;SDS011;6708;49.814;8.652;2023-05-06T00:30:58;3.03;;;1.30;;
13279;SDS011;6708;49.814;8.652;2023-05-06T00:33:27;1.40;;;1.30;;
13279;SDS011;6708;49.814;8.652;2023-05-06T00:35:55;1.03;;;1.03;;
13279;SDS011;6708;49.814;8.652;2023-05-06T00:38:24;1.10;;;1.10;;
13279;SDS011;6708;49.814;8.652;2023-05-06T00:40:52;2.90;;;1.13;;
13279;SDS011;6708;49.814;8.652;2023-05-06T00:43:24;1.13;;;1.13;;
13279;SDS011;6708;49.814;8.652;2023-05-06T00:45:52;1.90;;;1.77;;
13279;SDS011;6708;49.814;8.652;2023-05-06T00:48:21;1.10;;;1.00;;
13279;SDS011;6708;49.814;8.652;2023-05-06T00:50:49;1.13;;;1.10;;
13279;SDS011;6708;49.814;8.652;2023-05-06T00:53:18;1.20;;;1.20;;
13279;SDS011;6708;49.814;8.652;2023-05-06T00:55:47;3.37;;;0.70;;
13279;SDS011;6708;49.814;8.652;2023-05-06T00:58:17;1.10;;;1.10;;
13279;SDS011;6708;49.814;8.652;2023-05-06T01:00:49;0.90;;;0.90;;
13279;SDS011;6708;49.814;8.652;2023-05-06T01:03:18;1.20;;;1.10;;
13279;SDS011;6708;49.814;8.652;2023-05-06T01:05:49;1.87;;;0.90;;
13279;SDS011;6708;49.814;8.652;2023-05-06T01:08:20;1.23;;;1.00;;
13279;SDS011;6708;49.814;8.652;2023-05-06T01:10:53;1.47;;;0.90;;
13279;SDS011;6708;49.814;8.652;2023-05-06T01:13:27;1.40;;;0.80;;
13279;SDS011;6708;49.814;8.652;2023-05-06T01:16:00;1.00;;;1.00;;
13279;SDS011;6708;49.814;8.652;2023-05-06T01:18:30;0.70;;;0.70;;
13279;SDS011;6708;49.814;8.652;2023-05-06T01:20:59;1.03;;;1.03;;
13279;SDS011;6708;49.814;8.652;2023-05-06T01:23:31;0.70;;;0.70;;
13279;SDS011;6708;49.814;8.652;2023-05-06T01:26:17;2.27;;;1.47;;
13279;SDS011;6708;49.814;8.652;2023-05-06T01:28:45;0.83;;;0.83;;
13279;SDS011;6708;49.814;8.652;2023-05-06T01:31:16;1.17;;;1.07;;
13279;SDS011;6708;49.814;8.652;2023-05-06T01:33:49;0.97;;;0.97;;
13279;SDS011;6708;49.814;8.652;2023-05-06T01:36:22;0.87;;;0.87;;
13279;SDS011;6708;49.814;8.652;2023-05-06T01:39:04;0.80;;;0.80;;
13279;SDS011;6708;49.814;8.652;2023-05-06T01:41:37;1.60;;;0.90;;
13279;SDS011;6708;49.814;8.652;2023-05-06T01:44:08;0.87;;;0.87;;
13279;SDS011;6708;49.814;8.652;2023-05-06T01:46:39;1.37;;;1.07;;
13279;SDS011;6708;49.814;8.652;2023-05-06T01:49:07;1.93;;;1.20;;
13279;SDS011;6708;49.814;8.652;2023-05-06T01:51:37;1.97;;;1.00;;
13279;SDS011;6708;49.814;8.652;2023-05-06T01:54:09;2.43;;;1.00;;
13279;SDS011;6708;49.814;8.652;2023-05-06T01:56:37;0.87;;;0.87;;
13279;SDS011;6708;49.814;8.652;2023-05-06T01:59:05;1.13;;;0.80;;
13279;SDS011;6708;49.814;8.652;2023-05-06T02:01:34;1.10;;;0.67;;
13279;SDS011;6708;49.814;8.652;2023-05-06T02:04:02;0.83;;;0.83;;
13279;SDS011;6708;49.814;8.652;2023-05-06T02:06:31;0.83;;;0.70;;
13279;SDS011;6708;49.814;8.652;2023-05-06T02:08:59;0.50;;;0.50;;
13279;SDS011;6708;49.814;8.652;2023-05-06T02:11:33;4.93;;;0.83;;
13279;SDS011;6708;49.814;8.652;2023-05-06T02:14:04;1.07;;;0.70;;
13279;SDS011;6708;49.814;8.652;2023-05-06T02:16:33;0.60;;;0.60;;
13279;SDS011;6708;49.814;8.652;2023-05-06T02:19:02;0.53;;;0.53;;
13279;SDS011;6708;49.814;8.652;2023-05-06T02:21:31;0.97;;;0.87;;
13279;SDS011;6708;49.814;8.652;2023-05-06T02:24:00;1.03;;;0.97;;
13279;SDS011;6708;49.814;8.652;2023-05-06T02:26:28;0.60;;;0.60;;
13279;SDS011;6708;49.814;8.652;2023-05-06T02:28:59;0.63;;;0.60;;
13279;SDS011;6708;49.814;8.652;2023-05-06T02:31:29;0.70;;;0.70;;
13279;SDS011;6708;49.814;8.652;2023-05-06T02:33:57;0.93;;;0.60;;
13279;SDS011;6708;49.814;8.652;2023-05-06T02:36:26;0.70;;;0.70;;
13279;SDS011;6708;49.814;8.652;2023-05-06T02:38:54;0.70;;;0.63;;
13279;SDS011;6708;49.814;8.652;2023-05-06T02:41:23;0.70;;;0.70;;
13279;SDS011;6708;49.814;8.652;2023-05-06T02:43:51;0.70;;;0.70;;
13279;SDS011;6708;49.814;8.652;2023-05-06T02:46:22;0.90;;;0.83;;
13279;SDS011;6708;49.814;8.652;2023-05-06T02:48:51;1.37;;;0.73;;
13279;SDS011;6708;49.814;8.652;2023-05-06T02:51:19;0.90;;;0.90;;
13279;SDS011;6708;49.814;8.652;2023-05-06T02:53:47;0.60;;;0.50;;
13279;SDS011;6708;49.814;8.652;2023-05-06T02:56:16;1.37;;;0.80;;
13279;SDS011;6708;49.814;8.652;2023-05-06T02:58:44;1.03;;;0.73;;
13279;SDS011;6708;49.814;8.652;2023-05-06T03:01:12;0.90;;;0.90;;
13279;SDS011;6708;49.814;8.652;2023-05-06T03:03:44;1.33;;;0.67;;
13279;SDS011;6708;49.814;8.652;2023-05-06T03:06:13;3.70;;;0.50;;
13279;SDS011;6708;49.814;8.652;2023-05-06T03:08:41;0.60;;;0.60;;
13279;SDS011;6708;49.814;8.652;2023-05-06T03:11:10;2.63;;;0.60;;
13279;SDS011;6708;49.814;8.652;2023-05-06T03:13:38;0.90;;;0.70;;
13279;SDS011;6708;49.814;8.652;2023-05-06T03:16:10;0.80;;;0.80;;
13279;SDS011;6708;49.814;8.652;2023-05-06T03:18:44;0.80;;;0.80;;
13279;SDS011;6708;49.814;8.652;2023-05-06T03:21:12;0.70;;;0.70;;
13279;SDS011;6708;49.814;8.652;2023-05-06T03:23:43;0.53;;;0.50;;
13279;SDS011;6708;49.814;8.652;2023-05-06T03:26:11;1.23;;;0.80;;
13279;SDS011;6708;49.814;8.652;2023-05-06T03:28:41;0.63;;;0.63;;
13279;SDS011;6708;49.814;8.652;2023-05-06T03:31:11;0.80;;;0.80;;
13279;SDS011;6708;49.814;8.652;2023-05-06T03:33:39;0.70;;;0.70;;
13279;SDS011;6708;49.814;8.652;2023-05-06T03:36:12;0.60;;;0.60;;
13279;SDS011;6708;49.814;8.652;2023-05-06T03:38:43;0.53;;;0.53;;
13279;SDS011;6708;49.814;8.652;2023-05-06T03:41:11;0.43;;;0.43;;
13279;SDS011;6708;49.814;8.652;2023-05-06T03:43:40;0.60;;;0.60;;
13279;SDS011;6708;49.814;8.652;2023-05-06T03:46:09;0.63;;;0.63;;
13279;SDS011;6708;49.814;8.652;2023-05-06T03:48:38;0.57;;;0.57;;
13279;SDS011;6708;49.814;8.652;2023-05-06T03:51:12;0.60;;;0.60;;
13279;SDS011;6708;49.814;8.652;2023-05-06T03:53:44;1.03;;;0.90;;
13279;SDS011;6708;49.814;8.652;2023-05-06T03:56:13;0.60;;;0.60;;
13279;SDS011;6708;49.814;8.652;2023-05-06T03:58:42;0.60;;;0.60;;
13279;SDS011;6708;49.814;8.652;2023-05-06T04:01:11;0.80;;;0.80;;
13279;SDS011;6708;49.814;8.652;2023-05-06T04:03:40;2.83;;;0.87;;
13279;SDS011;6708;49.814;8.652;2023-05-06T04:06:08;0.70;;;0.70;;
13279;SDS011;6708;49.814;8.652;2023-05-06T04:08:39;0.60;;;0.60;;
13279;SDS011;6708;49.814;8.652;2023-05-06T04:11:08;1.13;;;0.63;;
13279;SDS011;6708;49.814;8.652;2023-05-06T04:13:36;2.53;;;0.90;;
13279;SDS011;6708;49.814;8.652;2023-05-06T04:16:11;0.70;;;0.70;;
13279;SDS011;6708;49.814;8.652;2023-05-06T04:18:42;0.73;;;0.50;;
13279;SDS011;6708;49.814;8.652;2023-05-06T04:21:14;1.20;;;0.70;;
13279;SDS011;6708;49.814;8.652;2023-05-06T04:23:50;0.70;;;0.70;;
13279;SDS011;6708;49.814;8.652;2023-05-06T04:26:22;0.60;;;0.60;;
13279;SDS011;6708;49.814;8.652;2023-05-06T04:28:51;0.67;;;0.67;;
13279;SDS011;6708;49.814;8.652;2023-05-06T04:31:20;1.40;;;0.73;;
13279;SDS011;6708;49.814;8.652;2023-05-06T04:33:49;0.73;;;0.60;;
13279;SDS011;6708;49.814;8.652;2023-05-06T04:36:20;0.93;;;0.90;;
13279;SDS011;6708;49.814;8.652;2023-05-06T04:39:10;1.90;;;0.90;;
13279;SDS011;6708;49.814;8.652;2023-05-06T04:41:39;0.90;;;0.90;;
13279;SDS011;6708;49.814;8.652;2023-05-06T04:44:11;0.80;;;0.80;;
13279;SDS011;6708;49.814;8.652;2023-05-06T04:46:42;0.93;;;0.63;;
13279;SDS011;6708;49.814;8.652;2023-05-06T04:49:10;0.93;;;0.70;;
13279;SDS011;6708;49.814;8.652;2023-05-06T04:51:39;0.30;;;0.30;;
13279;SDS011;6708;49.814;8.652;2023-05-06T04:54:10;0.87;;;0.87;;
13279;SDS011;6708;49.814;8.652;2023-05-06T04:56:39;1.00;;;1.00;;
13279;SDS011;6708;49.814;8.652;2023-05-06T04:59:09;1.60;;;0.57;;
13279;SDS011;6708;49.814;8.652;2023-05-06T05:01:40;0.80;;;0.80;;
13279;SDS011;6708;49.814;8.652;2023-05-06T05:04:09;0.70;;;0.70;;
13279;SDS011;6708;49.814;8.652;2023-05-06T05:06:38;0.80;;;0.80;;
13279;SDS011;6708;49.814;8.652;2023-05-06T05:09:09;0.63;;;0.63;;
13279;SDS011;6708;49.814;8.652;2023-05-06T05:11:41;0.83;;;0.80;;
13279;SDS011;6708;49.814;8.652;2023-05-06T05:14:09;0.67;;;0.67;;
13279;SDS011;6708;49.814;8.652;2023-05-06T05:16:38;0.80;;;0.80;;
13279;SDS011;6708;49.814;8.652;2023-05-06T05:19:07;1.13;;;0.87;;
13279;SDS011;6708;49.814;8.652;2023-05-06T05:21:36;0.57;;;0.57;;
13279;SDS011;6708;49.814;8.652;2023-05-06T05:24:06;1.13;;;0.87;;
13279;SDS011;6708;49.814;8.652;2023-05-06T05:26:37;1.00;;;1.00;;
13279;SDS011;6708;49.814;8.652;2023-05-06T05:29:06;2.37;;;0.67;;
13279;SDS011;6708;49.814;8.652;2023-05-06T05:31:36;0.60;;;0.60;;
13279;SDS011;6708;49.814;8.652;2023-05-06T05:34:04;0.70;;;0.70;;
13279;SDS011;6708;49.814;8.652;2023-05-06T05:36:33;0.90;;;0.90;;
13279;SDS011;6708;49.814;8.652;2023-05-06T05:39:05;0.63;;;0.63;;
13279;SDS011;6708;49.814;8.652;2023-05-06T05:41:40;1.93;;;0.80;;
13279;SDS011;6708;49.814;8.652;2023-05-06T05:44:09;0.83;;;0.83;;
13279;SDS011;6708;49.814;8.652;2023-05-06T05:46:38;1.23;;;1.20;;
13279;SDS011;6708;49.814;8.652;2023-05-06T05:49:09;0.90;;;0.90;;
13279;SDS011;6708;49.814;8.652;2023-05-06T05:51:37;1.63;;;1.53;;
13279;SDS011;6708;49.814;8.652;2023-05-06T05:54:06;2.03;;;1.93;;
13279;SDS011;6708;49.814;8.652;2023-05-06T05:56:35;2.30;;;2.10;;
13279;SDS011;6708;49.814;8.652;2023-05-06T06:05:47;2.73;;;2.30;;
13279;SDS011;6708;49.814;8.652;2023-05-06T06:08:17;2.43;;;1.90;;
13279;SDS011;6708;49.814;8.652;2023-05-06T06:10:49;2.17;;;1.53;;
13279;SDS011;6708;49.814;8.652;2023-05-06T06:13:22;2.27;;;1.90;;
13279;SDS011;6708;49.814;8.652;2023-05-06T06:15:51;2.13;;;2.03;;
13279;SDS011;6708;49.814;8.652;2023-05-06T06:18:20;1.67;;;1.57;;
13279;SDS011;6708;49.814;8.652;2023-05-06T06:20:51;3.33;;;1.80;;
13279;SDS011;6708;49.814;8.652;2023-05-06T06:23:19;1.93;;;1.53;;
13279;SDS011;6708;49.814;8.652;2023-05-06T06:25:48;1.80;;;1.70;;
13279;SDS011;6708;49.814;8.652;2023-05-06T06:28:17;4.60;;;1.10;;
13279;SDS011;6708;49.814;8.652;2023-05-06T06:30:45;2.17;;;1.37;;
13279;SDS011;6708;49.814;8.652;2023-05-06T06:33:14;1.50;;;1.50;;
13279;SDS011;6708;49.814;8.652;2023-05-06T06:35:42;1.40;;;1.40;;
13279;SDS011;6708;49.814;8.652;2023-05-06T06:38:13;1.77;;;1.67;;
13279;SDS011;6708;49.814;8.652;2023-05-06T06:40:42;1.17;;;1.17;;
13279;SDS011;6708;49.814;8.652;2023-05-06T06:43:10;1.50;;;1.40;;
13279;SDS011;6708;49.814;8.652;2023-05-06T06:45:57;1.43;;;1.33;;
13279;SDS011;6708;49.814;8.652;2023-05-06T06:48:25;1.43;;;1.33;;
13279;SDS011;6708;49.814;8.652;2023-05-06T06:50:54;1.57;;;1.50;;
13279;SDS011;6708;49.814;8.652;2023-05-06T06:53:25;1.30;;;1.20;;
13279;SDS011;6708;49.814;8.652;2023-05-06T06:55:53;1.90;;;0.93;;
13279;SDS011;6708;49.814;8.652;2023-05-06T06:58:22;4.20;;;1.73;;
13279;SDS011;6708;49.814;8.652;2023-05-06T07:00:50;1.67;;;1.60;;
13279;SDS011;6708;49.814;8.652;2023-05-06T07:03:18;1.70;;;1.60;;
13279;SDS011;6708;49.814;8.652;2023-05-06T07:05:47;1.60;;;1.50;;
13279;SDS011;6708;49.814;8.652;2023-05-06T07:08:16;1.53;;;1.50;;
13279;SDS011;6708;49.814;8.652;2023-05-06T07:10:48;2.20;;;1.40;;
13279;SDS011;6708;49.814;8.652;2023-05-06T07:13:16;1.47;;;1.37;;
13279;SDS011;6708;49.814;8.652;2023-05-06T07:15:47;1.60;;;1.47;;
13279;SDS011;6708;49.814;8.652;2023-05-06T07:18:15;1.50;;;1.40;;
13279;SDS011;6708;49.814;8.652;2023-05-06T07:20:44;1.10;;;1.10;;
13279;SDS011;6708;49.814;8.652;2023-05-06T07:23:12;1.47;;;1.47;;
13279;SDS011;6708;49.814;8.652;2023-05-06T07:25:41;1.40;;;1.40;;
13279;SDS011;6708;49.814;8.652;2023-05-06T07:28:12;3.80;;;1.53;;
13279;SDS011;6708;49.814;8.652;2023-05-06T07:30:40;1.80;;;1.70;;
13279;SDS011;6708;49.814;8.652;2023-05-06T07:33:09;1.30;;;1.30;;
13279;SDS011;6708;49.814;8.652;2023-05-06T07:35:37;2.00;;;1.73;;
13279;SDS011;6708;49.814;8.652;2023-05-06T07:38:06;3.27;;;1.87;;
13279;SDS011;6708;49.814;8.652;2023-05-06T07:40:34;2.07;;;1.97;;
13279;SDS011;6708;49.814;8.652;2023-05-06T07:43:03;1.80;;;1.70;;
13279;SDS011;6708;49.814;8.652;2023-05-06T07:45:33;2.37;;;2.17;;
13279;SDS011;6708;49.814;8.652;2023-05-06T07:48:02;1.90;;;1.80;;
13279;SDS011;6708;49.814;8.652;2023-05-06T07:50:31;2.10;;;2.00;;
13279;SDS011;6708;49.814;8.652;2023-05-06T07:52:59;1.87;;;1.77;;
13279;SDS011;6708;49.814;8.652;2023-05-06T07:55:28;2.50;;;1.67;;
13279;SDS011;6708;49.814;8.652;2023-05-06T07:57:56;1.70;;;1.60;;
13279;SDS011;6708;49.814;8.652;2023-05-06T08:00:25;1.67;;;1.57;;
13279;SDS011;6708;49.814;8.652;2023-05-06T08:02:56;1.80;;;1.70;;
13279;SDS011;6708;49.814;8.652;2023-05-06T08:05:25;1.90;;;1.60;;
13279;SDS011;6708;49.814;8.652;2023-05-06T08:07:53;3.10;;;1.87;;
13279;SDS011;6708;49.814;8.652;2023-05-06T08:10:22;4.10;;;1.63;;
13279;SDS011;6708;49.814;8.652;2023-05-06T08:12:50;1.97;;;1.50;;
13279;SDS011;6708;49.814;8.652;2023-05-06T08:15:19;1.83;;;1.73;;
13279;SDS011;6708;49.814;8.652;2023-05-06T08:17:47;3.40;;;1.70;;
13279;SDS011;6708;49.814;8.652;2023-05-06T08:20:18;1.60;;;1.50;;
13279;SDS011;6708;49.814;8.652;2023-05-06T08:22:46;1.37;;;1.27;;
13279;SDS011;6708;49.814;8.652;2023-05-06T08:25:15;1.50;;;1.47;;
13279;SDS011;6708;49.814;8.652;2023-05-06T08:27:43;1.40;;;1.40;;
13279;SDS011;6708;49.814;8.652;2023-05-06T08:30:13;1.50;;;1.40;;
13279;SDS011;6708;49.814;8.652;2023-05-06T08:32:42;1.30;;;1.30;;
13279;SDS011;6708;49.814;8.652;2023-05-06T08:35:10;1.57;;;1.37;;
13279;SDS011;6708;49.814;8.652;2023-05-06T08:37:42;1.50;;;1.30;;
13279;SDS011;6708;49.814;8.652;2023-05-06T08:40:14;2.07;;;1.30;;
13279;SDS011;6708;49.814;8.652;2023-05-06T08:42:45;1.80;;;1.30;;
13279;SDS011;6708;49.814;8.652;2023-05-06T08:45:15;2.30;;;1.50;;
13279;SDS011;6708;49.814;8.652;2023-05-06T08:47:44;1.77;;;1.67;;
13279;SDS011;6708;49.814;8.652;2023-05-06T08:50:13;1.73;;;1.27;;
13279;SDS011;6708;49.814;8.652;2023-05-06T08:52:44;1.73;;;1.63;;
13279;SDS011;6708;49.814;8.652;2023-05-06T08:55:12;1.30;;;1.00;;
13279;SDS011;6708;49.814;8.652;2023-05-06T08:57:40;1.10;;;1.10;;
13279;SDS011;6708;49.814;8.652;2023-05-06T09:00:10;1.13;;;1.13;;
13279;SDS011;6708;49.814;8.652;2023-05-06T09:02:39;1.47;;;1.30;;
13279;SDS011;6708;49.814;8.652;2023-05-06T09:05:09;0.97;;;0.90;;
13279;SDS011;6708;49.814;8.652;2023-05-06T09:07:38;0.80;;;0.80;;
13279;SDS011;6708;49.814;8.652;2023-05-06T09:10:10;1.53;;;0.70;;
13279;SDS011;6708;49.814;8.652;2023-05-06T09:12:39;0.63;;;0.63;;
13279;SDS011;6708;49.814;8.652;2023-05-06T09:15:09;0.83;;;0.80;;
13279;SDS011;6708;49.814;8.652;2023-05-06T09:17:37;1.03;;;0.73;;
13279;SDS011;6708;49.814;8.652;2023-05-06T09:20:10;0.60;;;0.60;;
13279;SDS011;6708;49.814;8.652;2023-05-06T09:22:39;0.90;;;0.90;;
13279;SDS011;6708;49.814;8.652;2023-05-06T09:25:11;1.00;;;1.00;;
13279;SDS011;6708;49.814;8.652;2023-05-06T09:27:39;0.90;;;0.90;;
13279;SDS011;6708;49.814;8.652;2023-05-06T09:30:08;0.67;;;0.67;;
13279;SDS011;6708;49.814;8.652;2023-05-06T09:32:38;0.57;;;0.57;;
13279;SDS011;6708;49.814;8.652;2023-05-06T09:35:07;1.60;;;0.60;;
13279;SDS011;6708;49.814;8.652;2023-05-06T09:37:36;0.47;;;0.47;;
13279;SDS011;6708;49.814;8.652;2023-05-06T09:40:05;2.90;;;1.00;;
13279;SDS011;6708;49.814;8.652;2023-05-06T09:42:38;0.57;;;0.57;;
13279;SDS011;6708;49.814;8.652;2023-05-06T09:45:07;0.70;;;0.70;;
13279;SDS011;6708;49.814;8.652;2023-05-06T09:47:36;1.63;;;1.45;;
13279;SDS011;6708;49.814;8.652;2023-05-06T09:50:06;1.38;;;1.33;;
13279;SDS011;6708;49.814;8.652;2023-05-06T09:52:36;0.60;;;0.60;;
13279;SDS011;6708;49.814;8.652;2023-05-06T09:55:05;1.17;;;0.80;;
13279;SDS011;6708;49.814;8.652;2023-05-06T09:57:34;0.50;;;0.50;;
13279;SDS011;6708;49.814;8.652;2023-05-06T10:00:07;0.30;;;0.30;;
13279;SDS011;6708;49.814;8.652;2023-05-06T10:02:40;0.32;;;0.32;;
13279;SDS011;6708;49.814;8.652;2023-05-06T10:05:09;2.20;;;0.40;;
13279;SDS011;6708;49.814;8.652;2023-05-06T10:07:38;0.47;;;0.40;;
13279;SDS011;6708;49.814;8.652;2023-05-06T10:10:08;1.00;;;0.30;;
13279;SDS011;6708;49.814;8.652;2023-05-06T10:12:41;0.30;;;0.30;;
13279;SDS011;6708;49.814;8.652;2023-05-06T10:15:10;0.47;;;0.47;;
13279;SDS011;6708;49.814;8.652;2023-05-06T10:17:39;0.10;;;0.10;;
13279;SDS011;6708;49.814;8.652;2023-05-06T10:20:11;0.20;;;0.20;;
13279;SDS011;6708;49.814;8.652;2023-05-06T10:22:44;0.20;;;0.20;;
13279;SDS011;6708;49.814;8.652;2023-05-06T10:25:21;0.30;;;0.30;;
13279;SDS011;6708;49.814;8.652;2023-05-06T10:27:55;5.10;;;0.50;;
13279;SDS011;6708;49.814;8.652;2023-05-06T10:30:23;0.23;;;0.23;;
13279;SDS011;6708;49.814;8.652;2023-05-06T10:32:54;0.30;;;0.30;;
13279;SDS011;6708;49.814;8.652;2023-05-06T10:35:26;0.63;;;0.30;;
13279;SDS011;6708;49.814;8.652;2023-05-06T10:38:02;0.87;;;0.50;;
13279;SDS011;6708;49.814;8.652;2023-05-06T10:40:31;0.40;;;0.40;;
13279;SDS011;6708;49.814;8.652;2023-05-06T10:46:02;0.60;;;0.60;;
13279;SDS011;6708;49.814;8.652;2023-05-06T10:48:33;0.47;;;0.47;;
13279;SDS011;6708;49.814;8.652;2023-05-06T10:53:53;0.40;;;0.40;;
13279;SDS011;6708;49.814;8.652;2023-05-06T10:56:27;0.43;;;0.43;;
13279;SDS011;6708;49.814;8.652;2023-05-06T10:58:58;1.08;;;0.57;;
13279;SDS011;6708;49.814;8.652;2023-05-06T11:01:31;0.20;;;0.20;;
13279;SDS011;6708;49.814;8.652;2023-05-06T11:04:01;1.15;;;0.50;;
13279;SDS011;6708;49.814;8.652;2023-05-06T11:06:32;2.33;;;0.60;;
13279;SDS011;6708;49.814;8.652;2023-05-06T11:09:02;6.40;;;0.60;;
13279;SDS011;6708;49.814;8.652;2023-05-06T11:14:26;0.47;;;0.40;;
13279;SDS011;6708;49.814;8.652;2023-05-06T11:16:55;0.45;;;0.40;;
13279;SDS011;6708;49.814;8.652;2023-05-06T11:19:26;0.50;;;0.50;;
13279;SDS011;6708;49.814;8.652;2023-05-06T11:21:55;0.30;;;0.30;;
13279;SDS011;6708;49.814;8.652;2023-05-06T11:24:25;0.15;;;0.15;;
13279;SDS011;6708;49.814;8.652;2023-05-06T11:26:55;0.32;;;0.32;;
13279;SDS011;6708;49.814;8.652;2023-05-06T11:29:26;0.47;;;0.47;;
13279;SDS011;6708;49.814;8.652;2023-05-06T11:31:55;1.50;;;0.43;;
13279;SDS011;6708;49.814;8.652;2023-05-06T11:34:24;0.32;;;0.32;;
13279;SDS011;6708;49.814;8.652;2023-05-06T11:36:55;0.38;;;0.30;;
13279;SDS011;6708;49.814;8.652;2023-05-06T11:39:26;0.30;;;0.30;;
13279;SDS011;6708;49.814;8.652;2023-05-06T11:41:56;3.63;;;0.63;;
13279;SDS011;6708;49.814;8.652;2023-05-06T11:44:30;0.80;;;0.30;;
13279;SDS011;6708;49.814;8.652;2023-05-06T11:47:00;0.30;;;0.30;;
13279;SDS011;6708;49.814;8.652;2023-05-06T11:49:33;0.45;;;0.45;;
13279;SDS011;6708;49.814;8.652;2023-05-06T11:52:02;0.50;;;0.50;;
13279;SDS011;6708;49.814;8.652;2023-05-06T11:54:33;0.40;;;0.40;;
13279;SDS011;6708;49.814;8.652;2023-05-06T11:57:01;0.22;;;0.22;;
13279;SDS011;6708;49.814;8.652;2023-05-06T11:59:33;0.28;;;0.28;;
13279;SDS011;6708;49.814;8.652;2023-05-06T12:02:03;0.30;;;0.30;;
13279;SDS011;6708;49.814;8.652;2023-05-06T12:04:35;0.65;;;0.50;;
13279;SDS011;6708;49.814;8.652;2023-05-06T12:07:05;0.20;;;0.20;;
13279;SDS011;6708;49.814;8.652;2023-05-06T12:09:34;0.28;;;0.28;;
13279;SDS011;6708;49.814;8.652;2023-05-06T12:12:04;0.32;;;0.20;;
13279;SDS011;6708;49.814;8.652;2023-05-06T12:14:37;0.40;;;0.40;;
13279;SDS011;6708;49.814;8.652;2023-05-06T12:17:05;0.25;;;0.25;;
13279;SDS011;6708;49.814;8.652;2023-05-06T12:19:34;0.20;;;0.20;;
13279;SDS011;6708;49.814;8.652;2023-05-06T12:22:15;0.20;;;0.20;;
13279;SDS011;6708;49.814;8.652;2023-05-06T12:24:44;0.40;;;0.25;;
13279;SDS011;6708;49.814;8.652;2023-05-06T12:27:13;0.30;;;0.30;;
13279;SDS011;6708;49.814;8.652;2023-05-06T12:29:52;0.93;;;0.40;;
13279;SDS011;6708;49.814;8.652;2023-05-06T12:32:21;0.52;;;0.30;;
13279;SDS011;6708;49.814;8.652;2023-05-06T12:34:49;0.43;;;0.43;;
13279;SDS011;6708;49.814;8.652;2023-05-06T12:37:25;0.77;;;0.30;;
13279;SDS011;6708;49.814;8.652;2023-05-06T12:39:54;0.43;;;0.43;;
13279;SDS011;6708;49.814;8.652;2023-05-06T12:42:23;1.40;;;0.60;;
13279;SDS011;6708;49.814;8.652;2023-05-06T12:44:54;0.50;;;0.50;;
13279;SDS011;6708;49.814;8.652;2023-05-06T12:47:24;0.65;;;0.40;;
13279;SDS011;6708;49.814;8.652;2023-05-06T12:49:53;0.40;;;0.38;;
13279;SDS011;6708;49.814;8.652;2023-05-06T12:52:23;0.30;;;0.30;;
13279;SDS011;6708;49.814;8.652;2023-05-06T12:54:52;0.20;;;0.20;;
13279;SDS011;6708;49.814;8.652;2023-05-06T12:57:21;0.30;;;0.30;;
13279;SDS011;6708;49.814;8.652;2023-05-06T12:59:50;0.50;;;0.40;;
13279;SDS011;6708;49.814;8.652;2023-05-06T13:02:22;0.95;;;0.40;;
13279;SDS011;6708;49.814;8.652;2023-05-06T13:04:51;0.80;;;0.55;;
13279;SDS011;6708;49.814;8.652;2023-05-06T13:07:21;0.30;;;0.30;;
13279;SDS011;6708;49.814;8.652;2023-05-06T13:09:49;0.57;;;0.52;;
13279;SDS011;6708;49.814;8.652;2023-05-06T13:12:17;5.00;;;0.40;;
13279;SDS011;6708;49.814;8.652;2023-05-06T13:14:46;0.60;;;0.60;;
13279;SDS011;6708;49.814;8.652;2023-05-06T13:17:14;0.82;;;0.55;;
13279;SDS011;6708;49.814;8.652;2023-05-06T13:19:45;1.00;;;0.50;;
13279;SDS011;6708;49.814;8.652;2023-05-06T13:22:13;0.40;;;0.40;;
13279;SDS011;6708;49.814;8.652;2023-05-06T13:24:42;1.65;;;0.40;;
13279;SDS011;6708;49.814;8.652;2023-05-06T13:27:11;0.30;;;0.30;;
13279;SDS011;6708;49.814;8.652;2023-05-06T13:29:39;0.47;;;0.47;;
13279;SDS011;6708;49.814;8.652;2023-05-06T13:32:07;0.50;;;0.50;;
13279;SDS011;6708;49.814;8.652;2023-05-06T13:34:36;0.50;;;0.50;;
13279;SDS011;6708;49.814;8.652;2023-05-06T13:37:07;1.35;;;0.25;;
13279;SDS011;6708;49.814;8.652;2023-05-06T13:39:35;0.40;;;0.40;;
13279;SDS011;6708;49.814;8.652;2023-05-06T13:42:04;0.38;;;0.38;;
13279;SDS011;6708;49.814;8.652;2023-05-06T13:44:32;0.40;;;0.40;;
13279;SDS011;6708;49.814;8.652;2023-05-06T13:47:01;0.47;;;0.47;;
13279;SDS011;6708;49.814;8.652;2023-05-06T13:49:29;0.80;;;0.60;;
13279;SDS011;6708;49.814;8.652;2023-05-06T13:51:58;0.55;;;0.55;;
13279;SDS011;6708;49.814;8.652;2023-05-06T13:54:29;0.45;;;0.40;;
13279;SDS011;6708;49.814;8.652;2023-05-06T13:56:58;0.30;;;0.30;;
13279;SDS011;6708;49.814;8.652;2023-05-06T13:59:27;0.52;;;0.52;;
13279;SDS011;6708;49.814;8.652;2023-05-06T14:01:55;1.75;;;0.40;;
13279;SDS011;6708;49.814;8.652;2023-05-06T14:04:23;0.43;;;0.38;;
13279;SDS011;6708;49.814;8.652;2023-05-06T14:06:52;0.55;;;0.55;;
13279;SDS011;6708;49.814;8.652;2023-05-06T14:09:21;0.22;;;0.22;;
13279;SDS011;6708;49.814;8.652;2023-05-06T14:11:53;0.35;;;0.35;;
13279;SDS011;6708;49.814;8.652;2023-05-06T14:14:21;0.50;;;0.50;;
13279;SDS011;6708;49.814;8.652;2023-05-06T14:16:52;0.40;;;0.40;;
13279;SDS011;6708;49.814;8.652;2023-05-06T14:19:20;1.13;;;0.35;;
13279;SDS011;6708;49.814;8.652;2023-05-06T14:21:48;1.20;;;0.60;;
13279;SDS011;6708;49.814;8.652;2023-05-06T14:24:17;0.55;;;0.52;;
13279;SDS011;6708;49.814;8.652;2023-05-06T14:26:46;1.73;;;0.40;;
13279;SDS011;6708;49.814;8.652;2023-05-06T14:29:17;0.63;;;0.60;;
13279;SDS011;6708;49.814;8.652;2023-05-06T14:31:45;0.20;;;0.20;;
13279;SDS011;6708;49.814;8.652;2023-05-06T14:34:13;0.40;;;0.40;;
13279;SDS011;6708;49.814;8.652;2023-05-06T14:36:44;0.30;;;0.30;;
13279;SDS011;6708;49.814;8.652;2023-05-06T14:39:12;0.60;;;0.60;;
13279;SDS011;6708;49.814;8.652;2023-05-06T14:41:41;0.40;;;0.40;;
13279;SDS011;6708;49.814;8.652;2023-05-06T14:44:09;0.57;;;0.57;;
13279;SDS011;6708;49.814;8.652;2023-05-06T14:46:40;0.60;;;0.55;;
13279;SDS011;6708;49.814;8.652;2023-05-06T14:49:09;1.45;;;0.40;;
13279;SDS011;6708;49.814;8.652;2023-05-06T14:51:37;1.08;;;0.60;;
13279;SDS011;6708;49.814;8.652;2023-05-06T14:54:06;0.70;;;0.50;;
13279;SDS011;6708;49.814;8.652;2023-05-06T14:56:34;0.65;;;0.50;;
13279;SDS011;6708;49.814;8.652;2023-05-06T14:59:02;0.50;;;0.45;;
13279;SDS011;6708;49.814;8.652;2023-05-06T15:01:31;0.57;;;0.57;;
13279;SDS011;6708;49.814;8.652;2023-05-06T15:04:03;0.30;;;0.30;;
13279;SDS011;6708;49.814;8.652;2023-05-06T15:06:31;0.65;;;0.47;;
13279;SDS011;6708;49.814;8.652;2023-05-06T15:09:00;0.70;;;0.53;;
13279;SDS011;6708;49.814;8.652;2023-05-06T15:11:28;0.93;;;0.70;;
13279;SDS011;6708;49.814;8.652;2023-05-06T15:13:57;0.70;;;0.70;;
13279;SDS011;6708;49.814;8.652;2023-05-06T15:16:25;0.40;;;0.40;;
13279;SDS011;6708;49.814;8.652;2023-05-06T15:18:53;1.50;;;0.70;;
13279;SDS011;6708;49.814;8.652;2023-05-06T15:21:24;1.23;;;0.80;;
13279;SDS011;6708;49.814;8.652;2023-05-06T15:23:53;1.63;;;0.77;;
13279;SDS011;6708;49.814;8.652;2023-05-06T15:26:21;1.13;;;0.93;;
13279;SDS011;6708;49.814;8.652;2023-05-06T15:28:50;0.87;;;0.80;;
13279;SDS011;6708;49.814;8.652;2023-05-06T15:31:18;0.77;;;0.77;;